SPTN/TCQ METAR and TAF weather

Enter ICAO airport designator
Station Type Date Time Source
SPTN METAR 2019/12/11 12:00 UTC NOAA

SPTN 111200Z 23003KT 9999 OVC040 18/13 Q1015 RMK 17.7 PP000


Station Type Date Time Source
SPTN Decoded METAR 2019/12/11 12:00 UTC NOAA

Tacna, Peru (SPTN) 18-04S 070-18W 469M
Dec 11, 2019 - 07:00 AM EST / 2019.12.11 1200 UTC
Wind: from the SW (230 degrees) at 3 MPH (3 KT):0
Visibility: greater than 7 mile(s):0
Sky conditions: overcast
Temperature: 64 F (18 C)
Dew Point: 55 F (13 C)
Relative Humidity: 72%
Pressure (altimeter): 29.97 in. Hg (1015 hPa)
ob: SPTN 111200Z 23003KT 9999 OVC040 18/13 Q1015 RMK 17.7 PP000
cycle: 12

Station Type Date Time Source
SPTN TAF 2019/12/11 12:33 UTC NOAA

TAF SPTN 111100Z 1112/1212 24005KT 9999 OVC040 TX25/1119Z TN17/1210Z
FM111800 22010KT CAVOK
FM120100 23003KT 9999 BKN050

Example: see airport list